Time;durP1;ratioP1;P1;durP2;ratioP2;P2;SDS_P1;SDS_P2;PMS_P1;PMS_P2;Temp;Humidity;BMP_temperature;BMP_pressure;BME280_temperature;BME280_humidity;BME280_pressure;Samples;Min_cycle;Max_cycle;Signal;HPM_P1;HPM_P2
2022/11/28 00:01:40;;;;;;;3.23;2.30;;;11.60;99.90;;;;;;5007531;28;20198;-31
2022/11/28 00:04:08;;;;;;;2.70;2.10;;;11.60;99.90;;;;;;5007492;28;20707;-31
2022/11/28 00:06:44;;;;;;;2.83;2.10;;;11.60;99.90;;;;;;5022526;28;20607;-31
2022/11/28 00:09:13;;;;;;;4.53;2.40;;;11.60;99.90;;;;;;5007300;28;20201;-31
2022/11/28 00:11:44;;;;;;;3.63;2.23;;;11.60;99.90;;;;;;5007191;28;20285;-32
2022/11/28 00:14:12;;;;;;;3.20;2.20;;;11.60;99.90;;;;;;5005786;28;20218;-31
2022/11/28 00:16:41;;;;;;;4.43;2.90;;;11.60;99.90;;;;;;5007050;28;20237;-32
2022/11/28 00:19:12;;;;;;;2.87;2.00;;;11.60;99.90;;;;;;5007105;28;20197;-32
2022/11/28 00:21:40;;;;;;;2.77;2.10;;;11.60;99.90;;;;;;5007318;28;20201;-31
2022/11/28 00:24:09;;;;;;;3.70;2.40;;;11.60;99.90;;;;;;5007080;28;20638;-30
2022/11/28 00:26:40;;;;;;;3.17;1.90;;;11.60;99.90;;;;;;5006799;28;20196;-32
2022/11/28 00:29:10;;;;;;;2.87;2.00;;;11.60;99.90;;;;;;5006723;28;20206;-31
2022/11/28 00:31:42;;;;;;;4.03;2.17;;;11.60;99.90;;;;;;5006864;28;20221;-31
2022/11/28 00:34:12;;;;;;;2.47;2.27;;;11.60;99.90;;;;;;5007065;28;20197;-32
2022/11/28 00:36:41;;;;;;;3.00;2.17;;;11.60;99.90;;;;;;5006851;28;20630;-31
2022/11/28 00:39:09;;;;;;;2.60;2.20;;;11.50;99.90;;;;;;5006756;28;20224;-32
2022/11/28 00:41:36;;;;;;;4.37;2.07;;;11.60;99.90;;;;;;5022153;28;20246;-32
2022/11/28 00:44:03;;;;;;;2.17;1.90;;;11.60;99.90;;;;;;5006928;28;20209;-32
2022/11/28 00:46:33;;;;;;;3.60;2.30;;;11.60;99.90;;;;;;5006902;28;20221;-31
2022/11/28 00:49:00;;;;;;;3.07;2.10;;;11.60;99.90;;;;;;5006527;28;20716;-31
2022/11/28 00:51:30;;;;;;;2.27;2.03;;;11.60;99.90;;;;;;5006743;28;20332;-31
2022/11/28 00:54:05;;;;;;;2.37;1.80;;;11.60;99.90;;;;;;5006627;28;20284;-31
2022/11/28 00:56:37;;;;;;;2.60;2.00;;;11.60;99.90;;;;;;5006606;28;20248;-31
2022/11/28 00:59:07;;;;;;;3.13;2.10;;;11.60;99.90;;;;;;5006724;28;20227;-31
2022/11/28 01:01:42;;;;;;;2.63;1.93;;;11.60;99.90;;;;;;5006768;28;20208;-31
2022/11/28 01:04:15;;;;;;;2.13;1.93;;;11.50;99.90;;;;;;5006941;28;20229;-31
2022/11/28 01:06:46;;;;;;;3.83;2.27;;;11.60;99.90;;;;;;5006802;28;20642;-31
2022/11/28 01:09:19;;;;;;;4.10;2.50;;;11.50;99.90;;;;;;5007161;28;20211;-31
2022/11/28 01:11:51;;;;;;;2.67;2.30;;;11.50;99.90;;;;;;5021409;28;20208;-31
2022/11/28 01:14:23;;;;;;;2.93;2.20;;;11.60;99.90;;;;;;5006648;28;20300;-32
2022/11/28 01:16:50;;;;;;;4.30;2.20;;;11.50;99.90;;;;;;5006386;28;20699;-31
2022/11/28 01:19:18;;;;;;;3.10;1.90;;;11.50;99.90;;;;;;5006583;28;20216;-31
2022/11/28 01:21:46;;;;;;;3.37;2.00;;;11.50;99.90;;;;;;5006614;28;20197;-31
2022/11/28 01:24:15;;;;;;;4.03;2.30;;;11.50;99.90;;;;;;5006109;28;20276;-31
2022/11/28 01:26:47;;;;;;;2.17;1.97;;;11.50;99.90;;;;;;5006748;28;20642;-31
2022/11/28 01:29:17;;;;;;;4.23;2.20;;;11.50;99.90;;;;;;5006135;28;20202;-31
2022/11/28 01:31:44;;;;;;;2.63;1.93;;;11.50;99.90;;;;;;5006587;28;20241;-31
2022/11/28 01:34:11;;;;;;;3.63;2.50;;;11.50;99.90;;;;;;5021285;28;20193;-31
2022/11/28 01:36:39;;;;;;;3.47;2.53;;;11.50;99.90;;;;;;5005850;28;20296;-31
2022/11/28 01:39:06;;;;;;;5.67;2.30;;;11.40;99.90;;;;;;5005779;28;20715;-31
2022/11/28 01:41:33;;;;;;;3.23;2.40;;;11.50;99.90;;;;;;5020518;28;20292;-32
2022/11/28 01:44:26;;;;;;;3.43;2.53;;;11.50;99.90;;;;;;5005959;28;20240;-31
2022/11/28 01:46:54;;;;;;;3.53;2.20;;;11.50;99.90;;;;;;5021299;28;20190;-32
2022/11/28 01:49:34;;;;;;;3.67;2.50;;;11.40;99.90;;;;;;5005582;28;20320;-32
2022/11/28 01:52:12;;;;;;;3.07;2.23;;;11.40;99.90;;;;;;5006097;28;20316;-31
2022/11/28 01:54:47;;;;;;;6.20;2.30;;;11.50;99.90;;;;;;5006223;28;20212;-31
2022/11/28 01:57:24;;;;;;;2.77;2.10;;;11.40;99.90;;;;;;5006189;28;20237;-31
2022/11/28 02:00:07;;;;;;;3.13;2.47;;;11.40;99.90;;;;;;4986229;28;20256;-32
2022/11/28 02:02:40;;;;;;;4.70;2.10;;;11.40;99.90;;;;;;5007174;28;20234;-31
2022/11/28 02:05:07;;;;;;;2.47;2.10;;;11.40;99.90;;;;;;5003199;28;20231;-31
2022/11/28 02:07:36;;;;;;;2.97;2.50;;;11.40;99.90;;;;;;4996864;28;20639;-32
2022/11/28 02:10:09;;;;;;;4.60;2.93;;;11.40;99.90;;;;;;5008938;28;20217;-31
2022/11/28 02:13:10;;;;;;;4.87;2.20;;;11.40;99.90;;;;;;5009098;28;20629;-31
2022/11/28 02:16:08;;;;;;;4.03;2.40;;;11.40;99.90;;;;;;5004319;28;20206;-31
2022/11/28 02:18:51;;;;;;;3.03;2.20;;;11.40;99.90;;;;;;5007465;28;20619;-31
2022/11/28 02:21:24;;;;;;;3.73;2.57;;;11.40;99.90;;;;;;5008841;28;20662;-31
2022/11/28 02:23:56;;;;;;;4.60;2.67;;;11.30;99.90;;;;;;4996301;28;20225;-31
2022/11/28 02:26:44;;;;;;;3.43;2.47;;;11.30;99.90;;;;;;5024021;28;20223;-32
2022/11/28 02:30:00;;;;;;;4.63;3.23;;;11.30;99.90;;;;;;5004184;28;20204;-31
2022/11/28 02:32:55;;;;;;;3.53;2.60;;;11.30;99.90;;;;;;4989550;28;20207;-31
2022/11/28 02:35:39;;;;;;;2.43;2.17;;;11.30;99.90;;;;;;5003878;28;20209;-32
2022/11/28 02:38:28;;;;;;;3.37;2.53;;;11.30;99.90;;;;;;4989389;28;20253;-31
2022/11/28 02:41:11;;;;;;;2.83;2.40;;;11.30;99.90;;;;;;4989300;28;20685;-31
2022/11/28 02:44:15;;;;;;;3.67;2.70;;;11.30;99.90;;;;;;4989214;28;20233;-31
2022/11/28 02:47:07;;;;;;;4.70;2.50;;;11.30;99.90;;;;;;4988889;28;20627;-32
2022/11/28 02:49:51;;;;;;;3.37;2.50;;;11.30;99.90;;;;;;4988245;28;20728;-32
2022/11/28 02:52:32;;;;;;;3.53;2.60;;;11.30;99.90;;;;;;5003211;28;20309;-32
2022/11/28 02:55:03;;;;;;;3.47;2.60;;;11.30;99.90;;;;;;4988972;28;20237;-31
2022/11/28 02:57:56;;;;;;;3.90;3.20;;;11.30;99.90;;;;;;4988965;28;20635;-31
2022/11/28 03:00:33;;;;;;;3.47;2.70;;;11.30;99.90;;;;;;4987388;28;20207;-31
2022/11/28 03:03:09;;;;;;;6.10;2.90;;;11.30;99.90;;;;;;4988576;28;20567;-32
2022/11/28 03:06:20;;;;;;;3.63;2.37;;;11.30;99.90;;;;;;4988530;28;20198;-31
2022/11/28 03:09:06;;;;;;;3.60;3.00;;;11.30;99.90;;;;;;4988288;28;20785;-32
2022/11/28 03:11:48;;;;;;;3.20;2.80;;;11.20;99.90;;;;;;4988214;28;20297;-31
2022/11/28 03:14:33;;;;;;;3.17;2.47;;;11.20;99.90;;;;;;4988445;28;20191;-31
2022/11/28 03:17:23;;;;;;;2.73;2.53;;;11.20;99.90;;;;;;4987993;28;20206;-31
2022/11/28 03:20:13;;;;;;;3.57;2.80;;;11.20;99.90;;;;;;4988192;28;20223;-31
2022/11/28 03:23:06;;;;;;;4.63;3.00;;;11.20;99.90;;;;;;4987943;28;20206;-31
2022/11/28 03:25:57;;;;;;;3.40;2.70;;;11.20;99.90;;;;;;5003140;28;20222;-32
2022/11/28 03:28:30;;;;;;;4.60;3.13;;;11.20;99.90;;;;;;4987691;28;20711;-31
2022/11/28 03:31:04;;;;;;;2.93;2.60;;;11.20;99.90;;;;;;4987723;28;20222;-32
2022/11/28 03:33:35;;;;;;;3.00;2.30;;;11.20;99.90;;;;;;4987853;28;20298;-31
2022/11/28 03:36:15;;;;;;;3.57;2.70;;;11.20;99.90;;;;;;4987900;28;20222;-32
2022/11/28 03:38:53;;;;;;;3.27;2.63;;;11.10;99.90;;;;;;4987620;28;20214;-31
2022/11/28 03:41:37;;;;;;;2.90;2.43;;;11.20;99.90;;;;;;4988128;28;20716;-32
2022/11/28 03:44:10;;;;;;;2.50;2.20;;;11.20;99.90;;;;;;4987987;28;20290;-32
2022/11/28 03:46:48;;;;;;;3.50;2.50;;;11.20;99.90;;;;;;4985943;28;20317;-31
2022/11/28 03:49:25;;;;;;;3.60;2.60;;;11.20;99.90;;;;;;4987692;28;20312;-31
2022/11/28 03:52:11;;;;;;;3.17;2.27;;;11.10;99.90;;;;;;4987336;28;20604;-32
2022/11/28 03:54:53;;;;;;;4.67;2.40;;;11.10;99.90;;;;;;4987518;28;20260;-31
2022/11/28 03:57:36;;;;;;;3.50;2.53;;;11.10;99.90;;;;;;4987379;28;20293;-32
2022/11/28 04:00:09;;;;;;;3.07;2.20;;;11.10;99.90;;;;;;4987545;28;20269;-31
2022/11/28 04:02:48;;;;;;;3.60;2.77;;;11.10;99.90;;;;;;4985948;28;20240;-31
2022/11/28 04:05:33;;;;;;;2.67;2.40;;;11.10;99.90;;;;;;4987132;28;20309;-30
2022/11/28 04:08:20;;;;;;;4.23;2.77;;;11.10;99.90;;;;;;4987505;28;20202;-32
2022/11/28 04:11:14;;;;;;;3.40;2.63;;;11.10;99.90;;;;;;5001981;28;20634;-31
2022/11/28 04:13:58;;;;;;;2.83;2.10;;;11.10;99.90;;;;;;4987313;28;20594;-32
2022/11/28 04:16:39;;;;;;;3.70;2.53;;;11.10;99.90;;;;;;5001942;28;20340;-31
2022/11/28 04:19:16;;;;;;;2.73;2.20;;;11.10;99.90;;;;;;4987270;28;20635;-32
2022/11/28 04:21:57;;;;;;;2.27;2.07;;;11.10;99.90;;;;;;4987659;28;20753;-30
2022/11/28 04:24:30;;;;;;;3.03;2.20;;;11.10;99.90;;;;;;4986789;28;20336;-32
2022/11/28 04:27:02;;;;;;;2.70;2.13;;;11.10;99.90;;;;;;4986740;28;20918;-32
2022/11/28 04:29:53;;;;;;;2.37;2.10;;;11.10;99.90;;;;;;4986950;28;20237;-31
2022/11/28 04:32:23;;;;;;;4.13;2.40;;;11.10;99.90;;;;;;4986861;28;20226;-32
2022/11/28 04:35:00;;;;;;;2.90;2.37;;;11.10;99.90;;;;;;5001710;28;20600;-31
2022/11/28 04:37:29;;;;;;;3.47;2.50;;;11.10;99.90;;;;;;4986751;28;20210;-31
2022/11/28 04:39:59;;;;;;;2.20;2.00;;;11.10;99.90;;;;;;4987294;28;20225;-32
2022/11/28 04:42:34;;;;;;;2.43;2.23;;;11.10;99.90;;;;;;4986895;28;20277;-32
2022/11/28 04:45:22;;;;;;;2.77;2.30;;;11.10;99.90;;;;;;5001344;28;20241;-32
2022/11/28 04:47:49;;;;;;;3.20;2.90;;;11.10;99.90;;;;;;4987025;28;20731;-32
2022/11/28 04:50:23;;;;;;;2.83;2.53;;;11.10;99.90;;;;;;4986908;28;20210;-31
2022/11/28 04:53:04;;;;;;;3.20;2.30;;;11.10;99.90;;;;;;4987100;28;20242;-32
2022/11/28 04:55:41;;;;;;;3.40;2.47;;;11.20;99.90;;;;;;4987526;28;20605;-31
2022/11/28 04:58:18;;;;;;;2.33;2.10;;;11.10;99.90;;;;;;4987035;28;20249;-32
2022/11/28 05:00:51;;;;;;;2.67;2.40;;;11.10;99.90;;;;;;4987195;28;20409;-31
2022/11/28 05:03:25;;;;;;;2.73;2.20;;;11.10;99.90;;;;;;4987133;28;20304;-32
2022/11/28 05:05:53;;;;;;;3.13;2.70;;;11.10;99.90;;;;;;4987022;28;20205;-32
2022/11/28 05:08:20;;;;;;;2.43;2.23;;;11.10;99.90;;;;;;4987546;28;20992;-32
2022/11/28 05:10:49;;;;;;;3.20;2.40;;;11.10;99.90;;;;;;4986723;28;20214;-31
2022/11/28 05:13:19;;;;;;;2.87;1.93;;;11.10;99.90;;;;;;4985392;28;20241;-31
2022/11/28 05:15:46;;;;;;;3.43;2.50;;;11.10;99.90;;;;;;4986722;28;20325;-32
2022/11/28 05:18:16;;;;;;;2.20;2.00;;;11.20;99.90;;;;;;4986832;28;20204;-31
2022/11/28 05:20:43;;;;;;;2.30;2.10;;;11.20;99.90;;;;;;4986978;28;20309;-32
2022/11/28 05:23:15;;;;;;;3.43;2.10;;;11.20;99.90;;;;;;4986965;28;20232;-31
2022/11/28 05:25:42;;;;;;;2.60;2.10;;;11.20;99.90;;;;;;4986557;28;20218;-32
2022/11/28 05:28:14;;;;;;;2.30;2.10;;;11.20;99.90;;;;;;5001100;28;20198;-32
2022/11/28 05:30:46;;;;;;;2.47;2.17;;;11.20;99.90;;;;;;4986769;28;20234;-32
2022/11/28 05:33:18;;;;;;;2.63;2.30;;;11.20;99.90;;;;;;4985647;28;20210;-31
2022/11/28 05:35:45;;;;;;;2.90;2.33;;;11.20;99.90;;;;;;4986911;28;20751;-31
2022/11/28 05:38:17;;;;;;;2.10;1.87;;;11.20;99.90;;;;;;4990363;28;20427;-31
2022/11/28 05:40:45;;;;;;;3.60;2.53;;;11.20;99.90;;;;;;4988751;28;20201;-32
2022/11/28 05:43:17;;;;;;;3.57;2.70;;;11.20;99.90;;;;;;4990193;28;20260;-32
2022/11/28 05:45:44;;;;;;;2.90;2.57;;;11.20;99.90;;;;;;4990491;28;20222;-31
2022/11/28 05:48:14;;;;;;;3.20;2.90;;;11.20;99.90;;;;;;4990395;28;20268;-31
2022/11/28 05:50:41;;;;;;;3.10;2.60;;;11.20;99.90;;;;;;4990336;28;20226;-32
2022/11/28 05:53:11;;;;;;;4.07;2.63;;;11.20;99.90;;;;;;4990444;28;20751;-31
2022/11/28 05:55:41;;;;;;;2.73;2.50;;;11.20;99.90;;;;;;4990060;28;20198;-32
2022/11/28 05:58:11;;;;;;;2.60;2.40;;;11.20;99.90;;;;;;4990252;28;20286;-32
2022/11/28 06:00:45;;;;;;;2.70;2.50;;;11.20;99.90;;;;;;4990166;28;20202;-31
2022/11/28 06:03:12;;;;;;;4.13;3.20;;;11.20;99.90;;;;;;4990248;28;20285;-34
2022/11/28 06:05:41;;;;;;;3.03;2.73;;;11.20;99.90;;;;;;4989816;28;20281;-34
2022/11/28 06:08:13;;;;;;;3.73;2.90;;;11.20;99.90;;;;;;4989998;28;20935;-34
2022/11/28 06:10:44;;;;;;;3.90;3.00;;;11.20;99.90;;;;;;4989767;28;20201;-34
2022/11/28 06:13:16;;;;;;;4.43;2.83;;;11.20;99.90;;;;;;4989636;28;20215;-33
2022/11/28 06:15:44;;;;;;;4.13;3.10;;;11.20;99.90;;;;;;4990132;28;20203;-33
2022/11/28 06:18:11;;;;;;;3.93;3.53;;;11.30;99.90;;;;;;4988334;28;20264;-33
2022/11/28 06:20:38;;;;;;;3.77;2.70;;;11.30;99.90;;;;;;4989686;28;20691;-33
2022/11/28 06:23:05;;;;;;;3.30;3.00;;;11.20;99.90;;;;;;4987904;28;20201;-34
2022/11/28 06:25:34;;;;;;;4.63;2.93;;;11.20;99.90;;;;;;4988028;28;20202;-34
2022/11/28 06:28:01;;;;;;;4.90;3.63;;;11.20;99.90;;;;;;4989631;28;20221;-33
2022/11/28 06:30:31;;;;;;;3.50;3.20;;;11.30;99.90;;;;;;4989475;28;20317;-33
2022/11/28 06:32:58;;;;;;;4.33;3.67;;;11.30;99.90;;;;;;4989521;28;20536;-31
2022/11/28 06:35:27;;;;;;;4.10;3.40;;;11.20;99.90;;;;;;4989277;28;20202;-31
2022/11/28 06:37:54;;;;;;;3.60;3.30;;;11.30;99.90;;;;;;5004035;28;20206;-32
2022/11/28 06:40:22;;;;;;;3.47;3.13;;;11.30;99.90;;;;;;4988796;28;20560;-32
2022/11/28 06:42:49;;;;;;;5.53;3.43;;;11.30;99.90;;;;;;4989447;28;21011;-30
2022/11/28 06:45:17;;;;;;;3.73;3.17;;;11.30;99.90;;;;;;4989431;28;20229;-32
2022/11/28 06:47:44;;;;;;;4.50;3.77;;;11.30;99.90;;;;;;4988735;28;20221;-31
2022/11/28 06:50:16;;;;;;;3.30;2.87;;;11.30;99.90;;;;;;4987328;28;20222;-31
2022/11/28 06:52:43;;;;;;;4.53;3.67;;;11.30;99.90;;;;;;4988930;28;20262;-32
2022/11/28 06:55:16;;;;;;;4.00;3.60;;;11.40;99.90;;;;;;4987442;28;20206;-32
2022/11/28 06:57:44;;;;;;;3.87;3.47;;;11.30;99.90;;;;;;4988842;28;20223;-31
2022/11/28 07:00:14;;;;;;;3.90;3.57;;;11.40;99.90;;;;;;4989030;28;20218;-32
2022/11/28 07:02:44;;;;;;;4.60;3.90;;;11.40;99.90;;;;;;4988982;28;20201;-32
2022/11/28 07:05:11;;;;;;;4.20;3.73;;;11.40;99.90;;;;;;4988516;28;20218;-32
2022/11/28 07:07:38;;;;;;;5.20;4.07;;;11.40;99.90;;;;;;4988707;28;20284;-32
2022/11/28 07:10:20;;;;;;;5.63;3.80;;;11.40;99.90;;;;;;4988794;28;20202;-32
2022/11/28 07:12:56;;;;;;;5.50;4.23;;;11.40;99.90;;;;;;4988693;28;20317;-31
2022/11/28 07:15:31;;;;;;;4.50;4.10;;;11.40;99.90;;;;;;4988514;28;20222;-32
2022/11/28 07:18:05;;;;;;;5.43;4.40;;;11.40;99.90;;;;;;4988344;28;20703;-32
2022/11/28 07:20:35;;;;;;;4.20;3.90;;;11.40;99.90;;;;;;4988224;28;20201;-31
2022/11/28 07:23:02;;;;;;;6.03;4.40;;;11.40;99.90;;;;;;4988492;28;20209;-31
2022/11/28 07:25:32;;;;;;;5.80;4.30;;;11.40;99.90;;;;;;4988220;28;20246;-34
2022/11/28 07:27:59;;;;;;;6.67;4.33;;;11.40;99.90;;;;;;4988268;28;20230;-34
2022/11/28 07:30:26;;;;;;;4.40;4.00;;;11.40;99.90;;;;;;4988264;28;20203;-34
2022/11/28 07:32:53;;;;;;;6.40;4.60;;;11.40;99.90;;;;;;4987965;28;20237;-33
2022/11/28 07:35:23;;;;;;;5.87;4.27;;;11.50;99.90;;;;;;4988195;28;20194;-33
2022/11/28 07:37:52;;;;;;;5.23;4.60;;;11.50;99.90;;;;;;4988421;28;20238;-33
2022/11/28 07:40:23;;;;;;;5.43;4.20;;;11.50;99.90;;;;;;4988309;28;20285;-33
2022/11/28 07:42:50;;;;;;;5.17;4.20;;;11.50;99.90;;;;;;4986659;28;20667;-34
2022/11/28 07:45:19;;;;;;;5.43;4.30;;;11.50;99.90;;;;;;4988222;28;20204;-34
2022/11/28 07:47:51;;;;;;;5.00;4.53;;;11.50;99.90;;;;;;4988125;28;20223;-31
2022/11/28 07:50:20;;;;;;;6.17;4.50;;;11.50;99.90;;;;;;4987969;28;20701;-32
2022/11/28 07:52:50;;;;;;;4.30;3.90;;;11.50;99.90;;;;;;4987903;28;20228;-31
2022/11/28 07:55:19;;;;;;;4.47;4.07;;;11.50;99.90;;;;;;4987802;28;20228;-32
2022/11/28 07:57:48;;;;;;;9.90;4.57;;;11.50;99.90;;;;;;4987700;28;20552;-31
2022/11/28 08:00:19;;;;;;;6.17;4.50;;;11.50;99.90;;;;;;4986931;28;20202;-31
2022/11/28 08:02:46;;;;;;;4.70;4.20;;;11.50;99.90;;;;;;4987617;28;20630;-32
2022/11/28 08:05:13;;;;;;;4.97;4.07;;;11.60;99.90;;;;;;4987559;28;20234;-32
2022/11/28 08:07:40;;;;;;;4.73;4.30;;;11.60;99.90;;;;;;4987798;28;20592;-31
2022/11/28 08:10:08;;;;;;;4.57;3.90;;;11.50;99.90;;;;;;4987397;28;20292;-32
2022/11/28 08:12:35;;;;;;;5.07;4.27;;;11.60;99.90;;;;;;4986081;28;20304;-34
2022/11/28 08:15:10;;;;;;;4.30;3.73;;;11.50;99.90;;;;;;4987502;28;20688;-34
2022/11/28 08:17:39;;;;;;;4.50;3.77;;;11.50;99.90;;;;;;4987417;28;20264;-32
2022/11/28 08:20:08;;;;;;;4.33;3.80;;;11.60;99.90;;;;;;4987325;28;20206;-32
2022/11/28 08:22:37;;;;;;;3.90;3.40;;;11.60;99.90;;;;;;4987354;28;20218;-31
2022/11/28 08:25:05;;;;;;;4.47;3.73;;;11.60;99.90;;;;;;4987194;28;20297;-32
2022/11/28 08:27:37;;;;;;;6.70;3.70;;;11.60;99.90;;;;;;4986876;28;20288;-31
2022/11/28 08:30:05;;;;;;;6.53;3.57;;;11.60;99.90;;;;;;4987196;28;20205;-31
2022/11/28 08:32:32;;;;;;;11.57;4.93;;;11.60;99.90;;;;;;4987463;28;20717;-32
2022/11/28 08:35:02;;;;;;;5.40;3.80;;;11.70;99.90;;;;;;4987028;28;20281;-32
2022/11/28 08:37:31;;;;;;;4.10;3.70;;;11.70;99.90;;;;;;5001814;28;20198;-33
2022/11/28 08:40:01;;;;;;;6.67;4.40;;;11.70;99.90;;;;;;4987415;28;20743;-31
2022/11/28 08:42:28;;;;;;;4.90;4.10;;;11.70;99.90;;;;;;4986898;28;20202;-32
2022/11/28 08:44:56;;;;;;;8.03;4.00;;;11.70;99.90;;;;;;4987266;28;20209;-32
2022/11/28 08:47:23;;;;;;;4.83;4.03;;;11.70;99.90;;;;;;4986788;28;20214;-31
2022/11/28 08:49:52;;;;;;;4.53;4.00;;;11.70;99.90;;;;;;4986715;28;20312;-31
2022/11/28 08:52:20;;;;;;;5.50;4.20;;;11.70;99.90;;;;;;4986336;28;20284;-32
2022/11/28 08:54:48;;;;;;;5.03;4.53;;;11.80;99.90;;;;;;4985232;28;20674;-30
2022/11/28 08:57:17;;;;;;;5.47;4.73;;;11.80;99.90;;;;;;4987328;28;20619;-30
2022/11/28 08:59:44;;;;;;;4.73;4.33;;;11.90;99.90;;;;;;4986889;28;20692;-30
2022/11/28 09:02:14;;;;;;;4.80;4.30;;;11.80;99.90;;;;;;4986734;28;20669;-30
2022/11/28 09:04:44;;;;;;;5.13;4.23;;;11.80;99.90;;;;;;4986998;28;20627;-30
2022/11/28 09:07:11;;;;;;;5.07;4.37;;;11.90;99.90;;;;;;4987260;28;20265;-30
2022/11/28 09:09:41;;;;;;;5.70;4.93;;;11.90;99.90;;;;;;4986969;28;20203;-30
2022/11/28 09:12:11;;;;;;;4.73;4.07;;;11.90;99.90;;;;;;4989363;28;20245;-30
2022/11/28 09:14:40;;;;;;;6.67;4.97;;;11.90;99.90;;;;;;4989488;28;20268;-30
2022/11/28 09:17:07;;;;;;;4.93;4.30;;;11.90;99.90;;;;;;4989454;28;20202;-30
2022/11/28 09:19:38;;;;;;;5.00;4.50;;;11.90;99.90;;;;;;4990309;28;20205;-30
2022/11/28 09:22:05;;;;;;;5.00;4.50;;;11.90;99.90;;;;;;4991025;28;20206;-30
2022/11/28 09:24:32;;;;;;;5.00;4.13;;;12.00;99.90;;;;;;5004880;28;20222;-30
2022/11/28 09:26:59;;;;;;;5.00;4.50;;;12.00;99.90;;;;;;4989859;28;20296;-30
2022/11/28 09:29:28;;;;;;;8.73;4.90;;;12.10;99.90;;;;;;4990337;28;20304;-30
2022/11/28 09:31:55;;;;;;;5.40;4.90;;;12.00;99.90;;;;;;4989948;28;20800;-30
2022/11/28 09:34:29;;;;;;;5.90;4.73;;;12.10;99.90;;;;;;4990101;28;20214;-32
2022/11/28 09:36:56;;;;;;;5.87;4.67;;;12.10;99.90;;;;;;4990434;28;20260;-33
2022/11/28 09:39:32;;;;;;;5.40;4.90;;;12.10;99.90;;;;;;4988547;28;20252;-32
2022/11/28 09:42:25;;;;;;;5.17;4.67;;;12.10;99.90;;;;;;4989977;28;20203;-33
2022/11/28 09:45:06;;;;;;;7.63;4.90;;;12.10;99.90;;;;;;4989863;28;20230;-32
2022/11/28 09:47:39;;;;;;;8.83;5.53;;;12.20;99.90;;;;;;4989807;28;20276;-31
2022/11/28 09:50:15;;;;;;;6.77;5.37;;;12.20;99.90;;;;;;4989869;28;20245;-32
2022/11/28 09:53:16;;;;;;;7.80;5.53;;;12.20;99.90;;;;;;4989875;28;20248;-32
2022/11/28 09:55:52;;;;;;;8.47;5.43;;;12.20;99.90;;;;;;4989488;28;20632;-32
2022/11/28 09:58:44;;;;;;;6.83;4.63;;;12.20;99.90;;;;;;4988071;28;20217;-31
2022/11/28 10:01:33;;;;;;;8.90;5.60;;;12.30;99.90;;;;;;4989602;28;20226;-32
2022/11/28 10:04:07;;;;;;;8.17;5.57;;;12.20;99.90;;;;;;4989470;28;20712;-32
2022/11/28 10:06:39;;;;;;;7.37;5.30;;;12.30;99.90;;;;;;4989473;28;20237;-32
2022/11/28 10:09:32;;;;;;;7.20;5.30;;;12.30;99.90;;;;;;4989504;28;21001;-31
2022/11/28 10:12:35;;;;;;;10.63;5.73;;;12.40;99.90;;;;;;4982405;28;20382;-32
2022/11/28 10:15:20;;;;;;;10.17;5.57;;;12.40;99.90;;;;;;4989092;28;20225;-32
2022/11/28 10:18:05;;;;;;;7.90;5.67;;;12.40;99.90;;;;;;4989446;28;20198;-33
2022/11/28 10:20:44;;;;;;;6.57;5.77;;;12.40;99.90;;;;;;4989323;28;20613;-32
2022/11/28 10:23:26;;;;;;;7.40;5.00;;;12.50;99.90;;;;;;4988360;28;20681;-32
2022/11/28 10:26:04;;;;;;;9.83;5.77;;;12.50;99.90;;;;;;5003834;28;20217;-32
2022/11/28 10:28:38;;;;;;;9.10;6.67;;;12.50;99.90;;;;;;4987725;28;20206;-32
2022/11/28 10:31:10;;;;;;;12.30;6.17;;;12.60;99.90;;;;;;4989380;28;20684;-33
2022/11/28 10:33:51;;;;;;;11.67;6.57;;;12.60;99.90;;;;;;5002970;28;20234;-32
2022/11/28 10:36:26;;;;;;;9.87;6.27;;;12.60;99.90;;;;;;4988936;28;20194;-31
2022/11/28 10:38:56;;;;;;;10.80;6.33;;;12.70;99.90;;;;;;4988870;28;20198;-32
2022/11/28 10:41:32;;;;;;;8.90;6.03;;;12.60;99.90;;;;;;4989062;28;20603;-30
2022/11/28 10:44:02;;;;;;;10.47;5.60;;;12.70;99.90;;;;;;4988977;28;20283;-30
2022/11/28 10:46:35;;;;;;;8.40;5.90;;;12.70;99.90;;;;;;4988516;28;20206;-30
2022/11/28 10:49:17;;;;;;;12.33;7.00;;;12.70;99.90;;;;;;4988489;28;20288;-30
2022/11/28 10:51:58;;;;;;;9.77;6.33;;;12.80;99.90;;;;;;4988509;28;20225;-30
2022/11/28 10:54:31;;;;;;;6.47;5.77;;;12.80;99.90;;;;;;4988474;28;20245;-30
2022/11/28 10:57:38;;;;;;;8.83;6.07;;;12.80;99.90;;;;;;4988613;28;20249;-30
2022/11/28 11:00:11;;;;;;;9.57;7.13;;;12.80;99.90;;;;;;4988556;28;20218;-30
2022/11/28 11:02:55;;;;;;;11.10;6.67;;;12.80;99.90;;;;;;4988285;28;20206;-30
2022/11/28 11:05:35;;;;;;;8.47;6.40;;;12.80;99.90;;;;;;4987861;28;20217;-30
2022/11/28 11:08:21;;;;;;;8.77;5.67;;;12.80;99.90;;;;;;4988090;28;20197;-30
2022/11/28 11:10:55;;;;;;;11.83;6.40;;;12.90;99.90;;;;;;4988100;28;20222;-30
2022/11/28 11:13:47;;;;;;;10.50;6.30;;;12.90;99.90;;;;;;4987819;28;20253;-30
2022/11/28 11:16:14;;;;;;;10.50;6.27;;;12.90;99.90;;;;;;4985010;28;20693;-29
2022/11/28 11:18:47;;;;;;;7.77;5.80;;;12.90;99.90;;;;;;5002881;28;20207;-30
2022/11/28 11:21:21;;;;;;;9.63;6.33;;;12.90;99.90;;;;;;4988168;28;20689;-30
2022/11/28 11:24:19;;;;;;;10.67;6.40;;;13.00;99.90;;;;;;4988031;28;20510;-30
2022/11/28 11:26:48;;;;;;;10.00;5.80;;;13.00;99.90;;;;;;4986410;28;20214;-30
2022/11/28 11:29:36;;;;;;;8.60;6.27;;;13.00;99.90;;;;;;4987575;28;20228;-31
2022/11/28 11:32:06;;;;;;;10.83;6.40;;;13.10;99.90;;;;;;4987723;28;20672;-32
2022/11/28 11:34:43;;;;;;;14.57;6.83;;;13.00;99.90;;;;;;4987816;28;20261;-32
2022/11/28 11:37:37;;;;;;;12.53;6.20;;;13.10;99.90;;;;;;5002583;28;20218;-31
2022/11/28 11:40:26;;;;;;;14.73;6.63;;;13.10;99.90;;;;;;4986714;28;20211;-32
2022/11/28 11:43:02;;;;;;;10.60;6.23;;;13.20;99.90;;;;;;5002005;28;20288;-32
2022/11/28 11:45:36;;;;;;;14.50;6.87;;;13.20;99.90;;;;;;4987411;28;20260;-32
2022/11/28 11:48:03;;;;;;;12.17;5.97;;;13.20;99.90;;;;;;5001910;28;20262;-32
2022/11/28 11:50:34;;;;;;;12.50;6.77;;;13.20;99.90;;;;;;4987723;28;20204;-32
2022/11/28 11:53:11;;;;;;;10.97;7.00;;;13.20;99.90;;;;;;4985934;28;20694;-32
2022/11/28 11:55:51;;;;;;;13.00;6.33;;;13.30;99.90;;;;;;5002086;28;20337;-32
2022/11/28 11:58:25;;;;;;;10.93;5.67;;;13.30;99.90;;;;;;5002194;28;20194;-32
2022/11/28 12:00:55;;;;;;;14.80;6.70;;;13.30;99.90;;;;;;4987368;28;20720;-32
2022/11/28 12:03:38;;;;;;;11.57;6.70;;;13.30;99.90;;;;;;5001937;28;20264;-32
2022/11/28 12:06:20;;;;;;;11.00;5.77;;;13.30;99.90;;;;;;4987584;28;20221;-31
2022/11/28 12:08:55;;;;;;;12.10;6.47;;;13.30;99.90;;;;;;4987362;28;20210;-34
2022/11/28 12:11:33;;;;;;;11.23;6.13;;;13.30;99.90;;;;;;4985586;28;20288;-32
2022/11/28 12:14:27;;;;;;;13.97;6.60;;;13.40;99.90;;;;;;4987255;28;20757;-33
2022/11/28 12:17:39;;;;;;;12.80;6.50;;;13.40;99.90;;;;;;4987039;28;20198;-32
2022/11/28 12:20:39;;;;;;;13.87;6.50;;;13.40;99.90;;;;;;4980043;28;20752;-32
2022/11/28 12:23:41;;;;;;;15.80;7.07;;;13.50;99.90;;;;;;4987007;28;20681;-32
2022/11/28 12:26:33;;;;;;;12.20;6.33;;;13.40;99.90;;;;;;4982845;28;20463;-32
2022/11/28 12:29:17;;;;;;;12.13;5.83;;;13.40;99.90;;;;;;4987176;28;20625;-31
2022/11/28 12:32:13;;;;;;;12.47;6.80;;;13.50;99.90;;;;;;4986741;28;20703;-31
2022/11/28 12:34:54;;;;;;;12.63;6.20;;;13.50;99.90;;;;;;4987123;28;20202;-32
2022/11/28 12:37:59;;;;;;;14.20;6.00;;;13.50;99.90;;;;;;5001789;28;20673;-31
2022/11/28 12:41:00;;;;;;;11.03;5.90;;;13.40;99.90;;;;;;4986899;28;20218;-31
2022/11/28 12:44:08;;;;;;;12.57;5.80;;;13.40;99.90;;;;;;4986328;28;20712;-32
2022/11/28 12:46:42;;;;;;;16.17;5.60;;;13.40;99.90;;;;;;4986241;28;20221;-32
2022/11/28 12:49:38;;;;;;;12.93;5.90;;;13.40;99.90;;;;;;4986434;28;20755;-31
2022/11/28 12:52:40;;;;;;;17.33;6.50;;;13.40;99.90;;;;;;4986593;28;20268;-30
2022/11/28 12:55:32;;;;;;;14.17;6.43;;;13.40;99.90;;;;;;4977322;28;20560;-30
2022/11/28 12:58:28;;;;;;;13.23;6.20;;;13.40;99.90;;;;;;4986747;28;20246;-30
2022/11/28 13:01:07;;;;;;;15.13;6.17;;;13.40;99.90;;;;;;4986152;28;20684;-30
2022/11/28 13:04:11;;;;;;;14.60;6.57;;;13.40;99.90;;;;;;4986522;28;20206;-30
2022/11/28 13:06:38;;;;;;;13.97;6.27;;;13.40;99.90;;;;;;4986161;28;20718;-30
2022/11/28 13:09:29;;;;;;;15.70;6.97;;;13.40;99.90;;;;;;4986234;28;20677;-30
2022/11/28 13:12:02;;;;;;;17.90;6.77;;;13.40;99.90;;;;;;4984793;28;20803;-30
2022/11/28 13:14:31;;;;;;;13.83;6.77;;;13.40;99.90;;;;;;5001026;28;20257;-29
2022/11/28 13:17:34;;;;;;;14.10;6.27;;;13.40;99.90;;;;;;4986365;28;20628;-30
2022/11/28 13:20:20;;;;;;;11.83;7.00;;;13.50;99.90;;;;;;5001110;28;20673;-30
2022/11/28 13:23:20;;;;;;;14.63;6.40;;;13.50;99.90;;;;;;4986449;28;20253;-30
2022/11/28 13:26:12;;;;;;;13.97;6.47;;;13.50;99.90;;;;;;4986117;28;20329;-30
2022/11/28 13:29:01;;;;;;;11.13;5.83;;;13.50;99.90;;;;;;4986322;28;20206;-30
2022/11/28 13:31:37;;;;;;;13.47;6.10;;;13.60;99.90;;;;;;4986000;28;20226;-30